createdAt,value
2023-04-22T00:07:17.419Z,8.21
2023-04-22T00:22:34.547Z,7.98
2023-04-22T00:37:37.388Z,7.63
2023-04-22T00:52:40.733Z,7.43
2023-04-22T01:07:43.203Z,7.38
2023-04-22T01:23:09.516Z,7.31
2023-04-22T01:38:13.188Z,7.30
2023-04-22T01:53:16.029Z,7.22
2023-04-22T02:08:33.273Z,7.21
2023-04-22T02:23:37.937Z,7.02
2023-04-22T02:38:40.665Z,6.83
2023-04-22T02:53:43.683Z,6.81
2023-04-22T03:24:18.368Z,6.70
2023-04-22T03:39:35.391Z,6.32
2023-04-22T03:54:38.549Z,6.12
2023-04-22T04:09:55.757Z,6.20
2023-04-22T04:24:58.385Z,6.58
2023-04-22T04:40:15.489Z,6.92
2023-04-22T04:55:18.102Z,7.36
2023-04-22T05:10:24.602Z,7.93
2023-04-22T05:25:41.745Z,8.16
2023-04-22T05:40:46.444Z,8.57
2023-04-22T05:55:50.317Z,9.02
2023-04-22T06:10:53.038Z,9.72
2023-04-22T06:25:57.858Z,10.61
2023-04-22T06:41:00.685Z,11.56
2023-04-22T06:56:04.968Z,12.53
2023-04-22T07:11:22.243Z,13.43
2023-04-22T07:26:25.406Z,14.31
2023-04-22T07:41:29.095Z,15.15
2023-04-22T07:56:32.031Z,15.69
2023-04-22T08:11:35.083Z,16.25
2023-04-22T08:26:52.648Z,16.73
2023-04-22T08:41:57.774Z,17.22
2023-04-22T08:57:02.050Z,17.78
2023-04-22T09:12:19.329Z,18.29
2023-04-22T09:27:25.423Z,18.58
2023-04-22T09:42:27.926Z,18.80
2023-04-22T09:57:30.798Z,19.10
2023-04-22T10:12:36.209Z,19.30
2023-04-22T10:27:39.857Z,19.47
2023-04-22T10:42:49.746Z,19.65
2023-04-22T10:58:19.705Z,19.74
2023-04-22T11:13:22.646Z,19.91
2023-04-22T11:28:26.440Z,20.05
2023-04-22T11:43:29.205Z,20.22
2023-04-22T11:58:31.660Z,20.37
2023-04-22T12:13:42.585Z,20.58
2023-04-22T12:28:46.304Z,20.49
2023-04-22T12:43:49.146Z,20.68
2023-04-22T12:59:06.421Z,20.93
2023-04-22T13:14:09.324Z,21.20
2023-04-22T13:29:13.567Z,21.47
2023-04-22T13:44:16.362Z,21.64
2023-04-22T13:59:18.995Z,21.93
2023-04-22T14:14:22.014Z,22.25
2023-04-22T14:29:24.828Z,22.71
2023-04-22T14:44:30.294Z,22.71
2023-04-22T14:59:47.579Z,23.00
2023-04-22T15:14:50.223Z,22.75
2023-04-22T15:29:54.503Z,22.33
2023-04-22T15:45:11.773Z,21.41
2023-04-22T16:00:28.823Z,20.78
2023-04-22T16:15:31.365Z,20.32
2023-04-22T16:30:48.625Z,19.93
2023-04-22T16:46:05.751Z,19.56
2023-04-22T17:01:08.233Z,19.17
2023-04-22T17:16:25.663Z,18.87
2023-04-22T17:31:28.565Z,18.59
2023-04-22T17:46:31.181Z,18.12
2023-04-22T18:01:33.944Z,17.55
2023-04-22T18:16:36.396Z,17.05
2023-04-22T18:31:40.335Z,16.63
2023-04-22T18:46:43.789Z,16.24
2023-04-22T19:01:46.752Z,15.66
2023-04-22T19:16:50.012Z,15.24
2023-04-22T19:31:53.761Z,14.87
2023-04-22T19:46:56.886Z,14.55
2023-04-22T20:02:00.014Z,14.19
2023-04-22T20:17:03.450Z,13.82
2023-04-22T20:32:09.731Z,13.54
2023-04-22T20:47:30.448Z,13.31
2023-04-22T21:02:35.980Z,13.06
2023-04-22T21:17:52.185Z,12.75
2023-04-22T21:32:55.118Z,12.48
2023-04-22T21:59:25.828Z,12.12
2023-04-22T22:14:31.827Z,11.83
2023-04-22T22:29:41.278Z,11.53
2023-04-22T22:44:46.219Z,11.22
2023-04-22T22:59:50.913Z,11.00
2023-04-22T23:30:13.815Z,10.70
